Time;durP1;ratioP1;P1;durP2;ratioP2;P2;SDS_P1;SDS_P2;PMS_P1;PMS_P2;Temp;Humidity;BMP_temperature;BMP_pressure;BME280_temperature;BME280_humidity;BME280_pressure;Samples;Min_cycle;Max_cycle;Signal;HPM_P1;HPM_P2
2022/04/24 00:02:24;;;;;;;5.03;3.67;;;;;;;11.14;54.58;97194.16;5117184;28;41028;-76
2022/04/24 00:04:52;;;;;;;5.17;3.13;;;;;;;11.10;54.49;97187.50;5099536;28;42014;-75
2022/04/24 00:07:19;;;;;;;4.57;3.60;;;;;;;11.09;54.68;97180.53;5116988;28;43312;-75
2022/04/24 00:09:47;;;;;;;4.93;3.83;;;;;;;10.94;54.17;97151.94;5117075;28;42306;-75
2022/04/24 00:12:17;;;;;;;3.47;3.17;;;;;;;11.03;54.30;97181.06;5099694;28;40047;-76
2022/04/24 00:14:47;;;;;;;4.27;3.10;;;;;;;10.99;54.16;97177.06;5113320;27;41708;-75
2022/04/24 00:17:16;;;;;;;4.40;3.40;;;;;;;10.98;53.99;97175.38;5079401;28;42191;-76
2022/04/24 00:19:49;;;;;;;4.77;3.20;;;;;;;10.95;53.83;97170.34;5096505;28;41519;-76
2022/04/24 00:22:17;;;;;;;4.07;3.67;;;;;;;10.92;53.65;97161.84;5113683;28;39948;-75
2022/04/24 00:24:44;;;;;;;4.23;3.57;;;;;;;10.83;53.77;97152.94;5096424;28;42725;-75
2022/04/24 00:27:12;;;;;;;3.50;3.20;;;;;;;10.88;53.81;97161.28;5103222;27;42813;-75
2022/04/24 00:29:42;;;;;;;3.43;3.10;;;;;;;10.86;53.60;97157.94;5137715;27;42248;-76
2022/04/24 00:32:10;;;;;;;3.30;3.00;;;;;;;10.82;53.45;97153.91;5120549;27;38974;-75
2022/04/24 00:34:38;;;;;;;4.13;3.10;;;;;;;10.79;53.16;97156.81;5120434;27;41727;-75
2022/04/24 00:37:05;;;;;;;4.83;3.50;;;;;;;10.76;53.18;97152.63;5138546;27;43721;-75
2022/04/24 00:39:33;;;;;;;4.20;3.47;;;;;;;10.76;53.04;97155.28;5120147;27;40926;-75
2022/04/24 00:42:00;;;;;;;3.70;3.20;;;;;;;10.75;53.34;97158.94;5137509;27;38921;-75
2022/04/24 00:44:28;;;;;;;3.23;2.93;;;;;;;10.75;52.82;97171.31;5120048;27;40661;-75
2022/04/24 00:47:04;;;;;;;5.03;3.60;;;;;;;10.75;52.85;97164.22;5133232;27;43344;-76
2022/04/24 00:49:32;;;;;;;3.97;3.33;;;;;;;10.74;53.07;97162.53;5130908;27;43240;-76
2022/04/24 00:51:59;;;;;;;3.40;2.93;;;;;;;10.66;53.09;97162.38;5133619;27;40083;-75
2022/04/24 00:54:27;;;;;;;3.13;2.60;;;;;;;10.64;53.08;97168.78;5116853;27;40667;-75
2022/04/24 00:56:54;;;;;;;4.10;3.30;;;;;;;10.69;53.04;97172.69;5134654;27;42725;-75
2022/04/24 00:59:22;;;;;;;3.77;3.23;;;;;;;10.60;52.78;97162.09;5116226;27;41313;-76
2022/04/24 01:01:50;;;;;;;4.50;3.37;;;;;;;10.64;52.96;97172.25;5116296;27;40880;-75
2022/04/24 01:04:20;;;;;;;5.30;2.90;;;;;;;10.64;52.83;97169.63;5134977;27;41813;-75
2022/04/24 01:06:47;;;;;;;2.93;2.70;;;;;;;10.62;52.95;97176.88;5133616;27;45492;-75
2022/04/24 01:09:17;;;;;;;3.37;3.07;;;;;;;10.54;53.03;97162.63;5133532;27;42264;-76
2022/04/24 01:11:47;;;;;;;3.33;2.90;;;;;;;10.55;52.99;97159.03;5116087;27;39231;-75
2022/04/24 01:14:16;;;;;;;5.33;3.53;;;;;;;10.53;52.82;97153.84;5117495;27;41698;-76
2022/04/24 01:16:44;;;;;;;3.10;2.80;;;;;;;10.51;53.09;97147.06;5112768;28;43721;-75
2022/04/24 01:19:13;;;;;;;4.50;3.03;;;;;;;10.47;53.40;97145.66;5095445;28;42318;-75
2022/04/24 01:21:43;;;;;;;4.17;3.27;;;;;;;10.44;52.92;97147.59;5110878;28;39943;-76
2022/04/24 01:24:12;;;;;;;3.90;3.13;;;;;;;10.43;53.22;97135.31;5112865;28;42247;-75
2022/04/24 01:26:40;;;;;;;3.33;2.93;;;;;;;10.42;52.94;97146.03;5095494;28;42778;-75
2022/04/24 01:29:09;;;;;;;5.07;3.50;;;;;;;10.36;52.95;97139.50;5112584;28;42457;-75
2022/04/24 01:31:37;;;;;;;4.93;3.00;;;;;;;10.34;52.75;97144.09;5112382;28;40880;-76
2022/04/24 01:34:05;;;;;;;4.83;2.83;;;;;;;10.32;52.93;97132.81;5094989;28;42137;-75
2022/04/24 01:36:32;;;;;;;3.23;2.93;;;;;;;10.30;52.40;97132.09;5112411;28;43122;-76
2022/04/24 01:39:01;;;;;;;4.80;3.23;;;;;;;10.23;52.36;97120.41;5113699;28;43248;-76
2022/04/24 01:41:29;;;;;;;3.83;3.10;;;;;;;10.29;52.15;97132.22;5111504;28;39781;-75
2022/04/24 01:43:56;;;;;;;3.60;2.73;;;;;;;10.16;52.35;97115.75;5112434;28;41730;-76
2022/04/24 01:46:23;;;;;;;2.90;2.60;;;;;;;10.20;52.24;97114.53;5112594;28;43768;-75
2022/04/24 01:48:51;;;;;;;3.17;2.60;;;;;;;10.01;51.96;97086.22;5113691;28;43403;-75
2022/04/24 01:51:20;;;;;;;3.23;2.93;;;;;;;10.29;52.00;97122.47;5112878;28;41842;-76
2022/04/24 01:53:47;;;;;;;2.73;2.53;;;;;;;10.33;51.70;97128.34;5112217;28;42606;-75
2022/04/24 01:56:16;;;;;;;3.43;2.60;;;;;;;10.24;51.72;97118.59;5112567;28;42947;-75
2022/04/24 01:58:44;;;;;;;3.70;2.90;;;;;;;10.39;51.76;97127.78;5111644;27;41374;-76
2022/04/24 02:01:12;;;;;;;3.53;2.80;;;;;;;10.44;51.54;97120.28;5091454;28;38775;-75
2022/04/24 02:03:41;;;;;;;2.50;2.27;;;;;;;10.49;51.71;97127.81;5074570;28;41851;-75
2022/04/24 02:06:08;;;;;;;3.13;2.70;;;;;;;10.46;51.35;97118.34;5091683;28;43700;-75
2022/04/24 02:08:36;;;;;;;3.10;2.80;;;;;;;10.57;51.49;97141.19;5074572;28;41037;-75
2022/04/24 02:11:05;;;;;;;4.17;3.10;;;;;;;10.57;51.23;97141.19;5079864;28;39934;-76
2022/04/24 02:13:34;;;;;;;2.93;2.60;;;;;;;10.63;51.17;97140.66;5091267;28;42565;-75
2022/04/24 02:16:02;;;;;;;3.40;3.00;;;;;;;10.66;51.14;97140.38;5091599;28;42983;-75
2022/04/24 02:18:30;;;;;;;3.40;2.77;;;;;;;10.60;51.31;97119.75;5074354;28;43252;-75
2022/04/24 02:20:57;;;;;;;4.10;2.90;;;;;;;10.66;51.27;97137.72;5093131;28;40116;-75
2022/04/24 02:23:25;;;;;;;3.07;2.77;;;;;;;10.69;51.02;97137.44;5113867;27;41780;-75
2022/04/24 02:25:52;;;;;;;4.57;3.30;;;;;;;10.69;51.36;97140.94;5113471;28;42853;-76
2022/04/24 02:28:20;;;;;;;3.03;2.73;;;;;;;10.69;51.39;97135.63;5112011;28;42243;-75
2022/04/24 02:30:49;;;;;;;3.13;2.37;;;;;;;10.63;51.48;97119.50;5111897;28;39956;-76
2022/04/24 02:33:17;;;;;;;3.73;2.70;;;;;;;10.69;51.51;97124.22;5111928;28;43288;-75
2022/04/24 02:35:45;;;;;;;4.23;2.80;;;;;;;10.56;51.39;97102.47;5113529;28;43942;-76
2022/04/24 02:38:13;;;;;;;5.03;3.40;;;;;;;10.70;51.52;97120.59;5111025;28;41332;-75
2022/04/24 02:40:41;;;;;;;3.30;2.93;;;;;;;10.69;51.25;97118.91;5111815;28;39608;-75
2022/04/24 02:43:08;;;;;;;3.93;2.80;;;;;;;10.69;51.17;97108.31;5094465;28;40804;-75
2022/04/24 02:45:36;;;;;;;3.97;2.73;;;;;;;10.69;51.42;97105.69;5111687;28;42247;-76
2022/04/24 02:48:06;;;;;;;3.10;2.63;;;;;;;10.74;51.72;97111.41;5128399;27;43183;-75
2022/04/24 02:50:34;;;;;;;2.67;2.47;;;;;;;10.68;52.03;97099.53;5128773;27;39677;-76
2022/04/24 02:53:01;;;;;;;3.60;3.10;;;;;;;10.66;51.81;97090.06;5111246;28;41042;-75
2022/04/24 02:55:29;;;;;;;2.70;2.43;;;;;;;10.68;51.20;97091.59;5111570;28;42784;-75
2022/04/24 02:57:56;;;;;;;3.83;3.13;;;;;;;10.75;51.91;97094.53;5112531;28;43301;-76
2022/04/24 03:00:25;;;;;;;4.10;2.90;;;;;;;10.78;51.64;97091.59;5094472;28;39945;-75
2022/04/24 03:02:53;;;;;;;3.00;2.70;;;;;;;10.81;51.66;97083.38;5128260;27;42699;-76
2022/04/24 03:05:24;;;;;;;3.37;2.57;;;;;;;10.78;51.88;97076.53;5112493;28;43766;-76
2022/04/24 03:07:52;;;;;;;3.50;3.20;;;;;;;10.77;52.04;97069.56;5111332;28;41502;-76
2022/04/24 03:10:21;;;;;;;3.77;3.07;;;;;;;10.85;51.66;97076.84;5093184;28;38923;-75
2022/04/24 03:12:48;;;;;;;5.37;3.53;;;;;;;10.86;52.35;97072.38;5110948;28;40531;-76
2022/04/24 03:15:16;;;;;;;4.70;3.70;;;;;;;10.86;52.33;97065.28;5128284;27;42271;-75
2022/04/24 03:17:44;;;;;;;3.63;3.13;;;;;;;10.87;52.44;97069.59;5093703;28;42020;-75
2022/04/24 03:20:13;;;;;;;3.30;3.00;;;;;;;10.90;52.51;97065.81;5120733;27;39686;-76
2022/04/24 03:22:42;;;;;;;4.40;3.20;;;;;;;10.94;52.39;97064.56;5073093;28;43360;-75
2022/04/24 03:25:11;;;;;;;4.60;3.40;;;;;;;10.96;52.38;97058.13;5090477;28;43717;-75
2022/04/24 03:27:38;;;;;;;4.43;3.27;;;;;;;10.95;52.81;97055.63;5090191;28;43250;-76
2022/04/24 03:30:08;;;;;;;4.77;3.63;;;;;;;10.95;52.78;97061.75;5090091;28;42301;-77
2022/04/24 03:32:37;;;;;;;3.87;3.17;;;;;;;10.94;52.60;97060.09;5090288;28;43590;-76
2022/04/24 03:35:06;;;;;;;4.03;3.63;;;;;;;10.84;53.47;97046.03;5090320;28;43065;-75
2022/04/24 03:37:34;;;;;;;3.80;3.33;;;;;;;10.95;52.79;97067.06;5104728;28;41246;-76
2022/04/24 03:40:03;;;;;;;3.33;3.00;;;;;;;10.96;52.77;97068.75;5093609;28;39299;-75
2022/04/24 03:42:32;;;;;;;4.20;3.40;;;;;;;11.01;52.78;97077.06;5110568;28;41874;-76
2022/04/24 03:45:01;;;;;;;4.73;4.00;;;;;;;10.91;53.17;97062.19;5111938;28;42896;-76
2022/04/24 03:47:29;;;;;;;4.00;3.57;;;;;;;10.95;52.75;97069.72;5110281;28;42362;-76
2022/04/24 03:49:56;;;;;;;4.10;3.70;;;;;;;11.09;53.05;97090.47;5110605;28;40235;-76
2022/04/24 03:52:24;;;;;;;4.17;3.77;;;;;;;11.11;52.99;97090.31;5111378;28;41732;-76
2022/04/24 03:54:51;;;;;;;4.60;3.60;;;;;;;11.13;52.85;97089.19;5110773;28;42631;-76
2022/04/24 03:57:20;;;;;;;4.57;4.10;;;;;;;11.19;53.01;97100.19;5093044;28;41237;-76
2022/04/24 03:59:48;;;;;;;5.30;4.10;;;;;;;11.18;53.53;97090.56;5093482;28;40091;-76
2022/04/24 04:02:16;;;;;;;4.77;4.27;;;;;;;11.20;53.66;97104.53;5093289;28;41436;-76
2022/04/24 04:04:44;;;;;;;5.00;3.77;;;;;;;11.24;53.54;97104.09;5110428;28;42651;-76
2022/04/24 04:07:12;;;;;;;5.20;3.93;;;;;;;11.26;53.18;97101.28;5092421;28;41792;-75
2022/04/24 04:09:39;;;;;;;4.57;4.17;;;;;;;11.29;53.05;97108.97;5093383;28;40028;-76
2022/04/24 04:12:08;;;;;;;3.60;3.30;;;;;;;11.35;52.82;97119.00;5110380;28;42613;-76
2022/04/24 04:14:38;;;;;;;5.27;4.20;;;;;;;11.39;52.98;97117.72;5110025;28;41095;-76
2022/04/24 04:17:06;;;;;;;4.87;4.03;;;;;;;11.35;53.09;97105.75;5111121;28;42506;-76
2022/04/24 04:19:34;;;;;;;4.80;3.70;;;;;;;11.44;52.91;97123.44;5110145;27;40651;-76
2022/04/24 04:22:01;;;;;;;4.23;3.53;;;;;;;11.42;53.07;97115.63;5125756;27;41832;-76
2022/04/24 04:24:29;;;;;;;5.07;3.83;;;;;;;11.44;53.76;97123.44;5113439;28;42897;-76
2022/04/24 04:26:57;;;;;;;4.30;3.90;;;;;;;11.37;53.71;97125.00;5093786;28;42714;-76
2022/04/24 04:29:24;;;;;;;5.97;4.37;;;;;;;11.32;54.19;97121.94;5093259;28;39805;-76
2022/04/24 04:31:53;;;;;;;4.50;4.10;;;;;;;11.20;55.18;97123.06;5093377;28;42447;-76
2022/04/24 04:34:21;;;;;;;4.20;3.77;;;;;;;11.14;55.29;97125.28;5080889;28;41592;-76
2022/04/24 04:36:49;;;;;;;4.20;3.80;;;;;;;11.13;55.91;97133.38;5094345;28;42432;-76
2022/04/24 04:39:16;;;;;;;4.97;4.27;;;;;;;11.09;56.35;97135.50;5076122;28;38904;-76
2022/04/24 04:41:44;;;;;;;6.30;4.50;;;;;;;11.04;56.77;97119.19;5092721;28;42468;-76
2022/04/24 04:44:12;;;;;;;5.57;4.83;;;;;;;11.04;57.04;97118.34;5095641;28;42663;-76
2022/04/24 04:46:39;;;;;;;5.10;4.10;;;;;;;11.02;57.35;97118.47;5096284;28;41412;-75
2022/04/24 04:49:08;;;;;;;5.63;5.07;;;;;;;11.06;57.63;97116.38;5113568;28;39893;-76
2022/04/24 04:51:36;;;;;;;6.33;4.87;;;;;;;11.08;57.40;97117.94;5113203;28;41956;-76
2022/04/24 04:54:04;;;;;;;4.70;4.23;;;;;;;11.03;57.20;97101.59;5092573;28;41633;-76
2022/04/24 04:56:31;;;;;;;7.20;5.00;;;;;;;11.14;57.24;97114.69;5092412;28;43021;-76
2022/04/24 04:58:59;;;;;;;6.23;5.10;;;;;;;11.21;57.41;97120.28;5092683;28;40020;-76
2022/04/24 05:01:27;;;;;;;5.23;4.70;;;;;;;11.20;57.81;97125.72;5092477;28;40972;-76
2022/04/24 05:03:54;;;;;;;5.43;4.63;;;;;;;11.14;58.10;97114.69;5101619;28;42754;-77
2022/04/24 05:06:23;;;;;;;7.70;4.90;;;;;;;11.25;57.95;97126.13;5095815;28;42240;-76
2022/04/24 05:08:51;;;;;;;5.90;5.17;;;;;;;11.26;58.51;97131.25;5096143;28;40909;-76
2022/04/24 05:11:19;;;;;;;6.03;5.30;;;;;;;11.26;59.09;97127.78;5096155;28;40683;-76
2022/04/24 05:13:47;;;;;;;5.73;4.53;;;;;;;11.19;59.37;97110.78;5112375;28;41226;-76
2022/04/24 05:16:14;;;;;;;6.00;5.40;;;;;;;11.30;60.42;97123.88;5095967;28;43433;-76
2022/04/24 05:18:42;;;;;;;6.43;5.00;;;;;;;11.28;59.99;97125.81;5129779;27;40111;-75
2022/04/24 05:21:10;;;;;;;7.73;5.57;;;;;;;11.25;61.24;97120.84;5095822;28;40076;-76
2022/04/24 05:23:42;;;;;;;5.30;4.80;;;;;;;11.31;60.75;97128.19;5112922;28;42887;-76
2022/04/24 05:26:09;;;;;;;7.20;5.43;;;;;;;11.30;62.25;97122.06;5096055;28;41179;-76
2022/04/24 05:28:37;;;;;;;7.90;5.83;;;;;;;11.31;62.49;97121.09;5113888;28;39851;-75
2022/04/24 05:31:05;;;;;;;7.63;5.63;;;;;;;11.32;62.04;97124.56;5112150;28;42584;-76
2022/04/24 05:33:33;;;;;;;6.60;5.33;;;;;;;11.37;61.97;97125.00;5113054;27;42652;-75
2022/04/24 05:36:01;;;;;;;6.67;5.23;;;;;;;11.40;62.70;97119.38;5112635;28;41106;-75
2022/04/24 05:38:28;;;;;;;6.43;5.73;;;;;;;11.43;63.74;97114.66;5095399;28;38953;-75
2022/04/24 05:40:57;;;;;;;6.20;4.67;;;;;;;11.47;63.63;97116.03;5129095;27;42675;-74
2022/04/24 05:43:25;;;;;;;6.63;5.23;;;;;;;11.52;64.23;97115.59;5112196;28;43644;-75
2022/04/24 05:45:53;;;;;;;6.97;6.17;;;;;;;11.57;64.58;97110.69;5112447;28;42325;-75
2022/04/24 05:48:20;;;;;;;7.37;5.83;;;;;;;11.68;64.02;97113.16;5095332;28;40434;-75
2022/04/24 05:50:48;;;;;;;9.07;6.07;;;;;;;11.80;65.10;97111.19;5112285;28;42626;-75
2022/04/24 05:53:16;;;;;;;7.77;6.70;;;;;;;11.90;64.63;97116.44;5095022;28;41610;-75
2022/04/24 05:55:43;;;;;;;5.80;5.20;;;;;;;11.96;64.48;97114.06;5129666;27;43397;-75
2022/04/24 05:58:13;;;;;;;8.33;7.00;;;;;;;12.03;65.29;97111.66;5112013;28;40910;-75
2022/04/24 06:00:40;;;;;;;7.23;6.37;;;;;;;12.07;65.16;97113.88;5128893;27;41769;-75
2022/04/24 06:03:08;;;;;;;6.93;6.03;;;;;;;12.06;64.72;97106.06;5095054;28;42395;-75
2022/04/24 06:05:35;;;;;;;6.73;6.00;;;;;;;12.25;64.68;97119.19;5112349;28;42283;-75
2022/04/24 06:08:04;;;;;;;7.90;6.30;;;;;;;12.27;64.39;97119.91;5129259;27;40868;-76
2022/04/24 06:10:31;;;;;;;6.97;6.27;;;;;;;12.28;64.27;97110.13;5095127;28;40727;-75
2022/04/24 06:12:59;;;;;;;8.40;6.47;;;;;;;12.33;64.21;97119.31;5111757;28;42549;-75
2022/04/24 06:15:29;;;;;;;7.93;6.13;;;;;;;12.39;63.76;97126.66;5129189;27;41995;-75
2022/04/24 06:17:58;;;;;;;6.73;6.03;;;;;;;12.49;63.70;97130.09;5112125;28;39715;-75
2022/04/24 06:20:28;;;;;;;8.43;6.60;;;;;;;12.62;63.68;97123.56;5128518;27;42478;-75
2022/04/24 06:22:57;;;;;;;8.60;7.20;;;;;;;12.74;62.49;97127.69;5128742;27;42803;-75
2022/04/24 06:25:30;;;;;;;8.40;6.33;;;;;;;12.89;62.25;97136.78;5133468;27;43188;-76
2022/04/24 06:27:59;;;;;;;9.30;6.93;;;;;;;12.94;61.32;97145.16;5131124;27;40509;-75
2022/04/24 06:30:30;;;;;;;8.37;6.67;;;;;;;13.09;61.11;97142.78;5132387;27;42646;-76
2022/04/24 06:32:58;;;;;;;6.87;6.17;;;;;;;13.15;61.46;97134.22;5114852;27;43054;-75
2022/04/24 06:35:26;;;;;;;9.73;7.43;;;;;;;13.22;60.88;97144.09;5115173;27;41004;-75
2022/04/24 06:37:55;;;;;;;7.93;6.63;;;;;;;13.21;61.61;97129.16;5132223;27;40126;-76
2022/04/24 06:40:24;;;;;;;8.47;6.93;;;;;;;13.22;60.31;97156.56;5133333;27;42835;-76
2022/04/24 06:42:53;;;;;;;7.97;6.63;;;;;;;13.12;60.24;97132.66;5131784;27;42773;-75
2022/04/24 06:45:27;;;;;;;7.40;6.60;;;;;;;13.15;60.59;97148.34;5113537;27;41763;-75
2022/04/24 06:47:57;;;;;;;8.97;7.10;;;;;;;13.16;60.74;97143.88;5114685;27;39710;-76
2022/04/24 06:50:26;;;;;;;8.13;6.90;;;;;;;13.06;61.13;97130.63;5133555;27;41269;-76
2022/04/24 06:53:01;;;;;;;9.13;7.27;;;;;;;13.12;61.38;97140.66;5133005;27;43598;-75
2022/04/24 06:55:30;;;;;;;9.50;7.47;;;;;;;13.09;61.22;97135.66;5115014;27;41516;-75
2022/04/24 06:57:58;;;;;;;8.30;6.77;;;;;;;13.08;61.37;97141.13;5131700;27;40886;-76
2022/04/24 07:00:28;;;;;;;10.20;7.83;;;;;;;13.04;61.02;97148.56;5114642;27;40769;-76
2022/04/24 07:02:57;;;;;;;10.27;7.50;;;;;;;13.03;61.61;97148.72;5114580;27;43657;-76
2022/04/24 07:05:28;;;;;;;8.17;7.37;;;;;;;12.99;61.35;97142.84;5114641;27;42395;-75
2022/04/24 07:07:55;;;;;;;9.20;6.93;;;;;;;12.91;61.46;97146.28;5131907;27;39799;-75
2022/04/24 07:10:24;;;;;;;9.70;7.23;;;;;;;12.87;61.64;97144.91;5130020;27;40452;-76
2022/04/24 07:12:53;;;;;;;9.03;7.33;;;;;;;12.84;61.91;97139.09;5093595;28;41962;-76
2022/04/24 07:15:22;;;;;;;10.50;7.90;;;;;;;12.87;62.33;97141.41;5090808;28;42414;-76
2022/04/24 07:17:51;;;;;;;7.80;6.70;;;;;;;12.87;61.91;97138.75;5091747;28;39988;-76
2022/04/24 07:20:21;;;;;;;9.53;7.23;;;;;;;12.89;62.06;97142.09;5080712;28;41786;-76
2022/04/24 07:22:50;;;;;;;10.10;7.63;;;;;;;12.86;62.95;97137.09;5073342;28;43072;-76
2022/04/24 07:25:20;;;;;;;8.70;7.43;;;;;;;12.72;63.05;97121.72;5090456;28;42226;-76
2022/04/24 07:27:48;;;;;;;8.97;7.47;;;;;;;12.74;63.71;97122.34;5090401;28;40970;-76
2022/04/24 07:30:16;;;;;;;8.80;6.80;;;;;;;12.68;64.24;97133.59;5098288;28;41784;-75
2022/04/24 07:32:46;;;;;;;8.83;6.80;;;;;;;12.64;64.09;97126.91;5110641;28;42704;-76
2022/04/24 07:35:15;;;;;;;7.53;6.33;;;;;;;12.62;63.94;97126.22;5110630;28;42972;-76
2022/04/24 07:37:44;;;;;;;9.23;7.23;;;;;;;12.58;64.42;97133.69;5093546;28;41061;-76
2022/04/24 07:40:14;;;;;;;7.00;6.30;;;;;;;12.57;64.01;97130.19;5110262;28;42690;-76
2022/04/24 07:42:46;;;;;;;8.43;6.87;;;;;;;12.59;64.73;97120.25;5110482;28;41767;-76
2022/04/24 07:45:18;;;;;;;8.40;7.07;;;;;;;12.55;64.90;97129.50;5124755;27;42995;-75
2022/04/24 07:47:46;;;;;;;9.20;7.53;;;;;;;12.52;64.95;97135.09;5109921;28;40570;-76
2022/04/24 07:50:15;;;;;;;7.30;6.50;;;;;;;12.51;65.37;97130.78;5093349;28;40236;-76
2022/04/24 07:52:46;;;;;;;8.87;7.53;;;;;;;12.51;64.86;97148.53;5111587;28;42756;-76
2022/04/24 07:55:17;;;;;;;9.13;6.90;;;;;;;12.49;64.62;97151.31;5093478;27;40664;-76
2022/04/24 07:57:45;;;;;;;10.43;7.70;;;;;;;12.49;65.02;97143.38;5114151;28;40023;-76
2022/04/24 08:00:13;;;;;;;10.50;8.20;;;;;;;12.41;65.47;97142.44;5115163;28;41792;-75
2022/04/24 08:02:49;;;;;;;8.73;7.37;;;;;;;12.32;66.08;97138.03;5114089;28;42826;-75
2022/04/24 08:05:22;;;;;;;10.73;7.80;;;;;;;12.21;67.22;97141.72;5111067;28;43204;-75
2022/04/24 08:07:52;;;;;;;8.63;7.30;;;;;;;12.05;68.05;97133.56;5096642;28;40488;-75
2022/04/24 08:10:20;;;;;;;9.10;7.60;;;;;;;11.99;68.17;97147.44;5097121;28;41810;-75
2022/04/24 08:12:55;;;;;;;11.10;7.80;;;;;;;11.94;68.87;97145.22;5097328;28;43633;-75
2022/04/24 08:15:23;;;;;;;10.10;7.77;;;;;;;11.90;69.85;97142.97;5113655;27;43525;-75
2022/04/24 08:17:52;;;;;;;10.80;8.33;;;;;;;11.88;70.06;97141.31;5113307;27;39359;-75
2022/04/24 08:20:20;;;;;;;8.67;7.47;;;;;;;11.86;70.26;97142.47;5134215;27;41801;-75
2022/04/24 08:22:48;;;;;;;11.90;9.37;;;;;;;11.90;70.88;97146.47;5135545;27;42737;-76
2022/04/24 08:25:20;;;;;;;10.60;8.70;;;;;;;11.80;70.75;97137.72;5116760;27;41925;-76
2022/04/24 08:27:49;;;;;;;9.60;8.33;;;;;;;11.79;71.12;97144.00;5117359;27;41047;-76
2022/04/24 08:30:19;;;;;;;11.20;8.03;;;;;;;11.81;71.75;97150.84;5135614;27;42740;-76
2022/04/24 08:32:48;;;;;;;11.23;8.03;;;;;;;11.78;71.92;97153.78;5134112;27;43157;-76
2022/04/24 08:35:18;;;;;;;11.17;8.87;;;;;;;11.76;72.10;97158.38;5117097;27;42301;-77
2022/04/24 08:37:47;;;;;;;9.57;8.27;;;;;;;11.77;72.63;97154.75;5117220;27;39877;-76
2022/04/24 08:40:20;;;;;;;12.57;9.43;;;;;;;11.83;73.75;97148.88;5116789;27;41241;-77
2022/04/24 08:42:48;;;;;;;11.27;8.90;;;;;;;11.90;73.56;97154.44;5132728;27;43750;-76
2022/04/24 08:45:16;;;;;;;9.60;8.37;;;;;;;12.14;74.58;97151.25;5134115;27;42402;-76
2022/04/24 08:47:46;;;;;;;13.17;9.20;;;;;;;12.34;75.56;97152.84;5116881;27;40066;-76
2022/04/24 08:50:14;;;;;;;13.33;8.83;;;;;;;12.64;74.39;97151.66;5133813;27;42014;-77
2022/04/24 08:52:43;;;;;;;11.70;9.87;;;;;;;13.01;74.32;97146.19;5135309;27;43084;-76
2022/04/24 08:55:12;;;;;;;11.37;9.17;;;;;;;13.28;74.52;97147.94;5116576;27;42635;-76
2022/04/24 08:57:41;;;;;;;12.03;9.47;;;;;;;13.58;73.78;97150.19;5133393;27;39027;-76
2022/04/24 09:00:10;;;;;;;13.00;9.07;;;;;;;14.02;72.92;97148.25;5116633;27;40412;-76
2022/04/24 09:02:38;;;;;;;11.07;8.60;;;;;;;14.50;72.77;97146.81;5133508;27;43032;-76
2022/04/24 09:05:07;;;;;;;12.23;9.87;;;;;;;14.72;71.83;97145.34;5116484;27;42703;-76
2022/04/24 09:07:36;;;;;;;12.00;9.40;;;;;;;14.71;70.22;97149.06;5132563;27;39849;-77
2022/04/24 09:10:07;;;;;;;10.93;8.80;;;;;;;14.57;70.08;97145.19;5116779;27;40589;-76
2022/04/24 09:12:35;;;;;;;10.10;8.60;;;;;;;14.48;70.71;97145.31;5132026;27;42567;-76
2022/04/24 09:15:05;;;;;;;14.87;9.97;;;;;;;14.24;69.81;97152.19;5134788;27;43252;-78
2022/04/24 09:17:34;;;;;;;9.50;8.13;;;;;;;14.18;70.21;97154.66;5133527;27;39997;-77
2022/04/24 09:20:15;;;;;;;11.87;9.10;;;;;;;14.28;70.12;97152.69;5116042;27;41741;-77
2022/04/24 09:22:43;;;;;;;12.37;9.33;;;;;;;14.34;70.02;97162.72;5132400;27;42886;-77
2022/04/24 09:25:12;;;;;;;14.00;8.70;;;;;;;14.36;70.03;97152.72;5133797;27;42404;-77
2022/04/24 09:27:40;;;;;;;11.20;9.53;;;;;;;14.71;69.42;97160.50;5133309;27;39098;-77
2022/04/24 09:30:13;;;;;;;11.83;9.17;;;;;;;15.26;68.41;97154.59;5133667;27;42693;-77
2022/04/24 09:32:48;;;;;;;10.60;8.07;;;;;;;15.59;66.40;97160.78;5133222;27;43507;-77
2022/04/24 09:35:26;;;;;;;10.17;8.50;;;;;;;15.79;65.42;97161.25;5133474;27;42433;-77
2022/04/24 09:38:08;;;;;;;12.03;8.20;;;;;;;15.98;64.96;97160.03;5132196;27;40875;-76
2022/04/24 09:40:40;;;;;;;9.47;7.37;;;;;;;15.90;64.50;97174.25;5131403;27;42662;-77
2022/04/24 09:43:11;;;;;;;9.40;8.20;;;;;;;15.76;64.19;97157.09;5134340;27;43750;-77
2022/04/24 09:45:42;;;;;;;8.33;7.30;;;;;;;15.72;65.30;97170.94;5130352;27;42859;-77
2022/04/24 09:48:14;;;;;;;9.73;8.17;;;;;;;15.73;65.01;97168.09;5133464;27;40757;-77
2022/04/24 09:50:42;;;;;;;8.63;7.10;;;;;;;15.96;63.47;97173.56;5134645;27;43118;-77
2022/04/24 09:53:14;;;;;;;7.70;6.27;;;;;;;16.36;62.80;97177.94;5133250;27;42978;-77
2022/04/24 09:55:44;;;;;;;6.70;6.00;;;;;;;16.63;60.37;97187.38;5125191;27;41469;-77
2022/04/24 09:58:21;;;;;;;7.10;5.60;;;;;;;16.79;61.17;97181.97;5113155;28;41263;-77
2022/04/24 10:00:53;;;;;;;7.83;6.60;;;;;;;16.83;60.44;97180.59;5095523;28;40313;-77
2022/04/24 10:03:21;;;;;;;7.03;5.37;;;;;;;16.78;59.80;97191.00;5111799;28;42775;-77
2022/04/24 10:05:49;;;;;;;7.00;4.90;;;;;;;16.78;59.82;97184.81;5113503;28;43044;-77
2022/04/24 10:08:18;;;;;;;5.97;4.80;;;;;;;16.78;59.13;97191.00;5112427;28;39794;-77
2022/04/24 10:10:46;;;;;;;5.50;4.33;;;;;;;16.70;59.00;97195.53;5112317;28;42816;-77
2022/04/24 10:13:15;;;;;;;5.40;4.90;;;;;;;16.58;58.91;97195.03;5094861;28;43665;-77
2022/04/24 10:15:48;;;;;;;5.83;4.70;;;;;;;16.54;60.19;97180.38;5113501;28;43120;-77
2022/04/24 10:18:31;;;;;;;6.20;4.70;;;;;;;16.38;59.91;97188.47;5111497;28;40770;-77
2022/04/24 10:21:12;;;;;;;8.67;6.83;;;;;;;16.11;60.70;97179.84;5094964;28;41846;-78
2022/04/24 10:23:40;;;;;;;8.70;7.53;;;;;;;15.84;61.14;97174.91;5126306;27;44328;-77
2022/04/24 10:26:17;;;;;;;8.17;7.23;;;;;;;15.77;62.02;97169.44;5115298;27;41253;-77
2022/04/24 10:28:46;;;;;;;9.10;7.30;;;;;;;15.83;62.78;97162.56;5115499;27;40170;-77
2022/04/24 10:31:15;;;;;;;10.10;8.87;;;;;;;15.75;62.65;97170.59;5132489;27;42359;-77
2022/04/24 10:33:54;;;;;;;11.73;9.27;;;;;;;15.54;63.46;97151.59;5133613;27;42696;-77
2022/04/24 10:36:23;;;;;;;9.13;7.57;;;;;;;15.47;63.85;97164.75;5132452;27;44312;-78
2022/04/24 10:39:16;;;;;;;11.47;9.87;;;;;;;15.26;63.58;97165.25;5129632;27;39666;-77
2022/04/24 10:41:55;;;;;;;11.73;9.27;;;;;;;15.14;64.13;97158.59;5132415;27;40919;-77
2022/04/24 10:44:23;;;;;;;11.47;9.27;;;;;;;15.12;64.45;97157.91;5132500;27;42820;-78
2022/04/24 10:46:51;;;;;;;11.07;9.23;;;;;;;15.07;64.05;97155.78;5131889;27;43447;-77
2022/04/24 10:49:20;;;;;;;10.40;8.93;;;;;;;15.09;64.00;97163.56;5114977;27;39042;-77
2022/04/24 10:51:59;;;;;;;12.73;10.33;;;;;;;15.12;63.97;97159.75;5133344;27;41695;-77
2022/04/24 10:54:33;;;;;;;10.47;8.37;;;;;;;15.26;64.17;97159.94;5130492;27;42699;-76
2022/04/24 10:57:00;;;;;;;10.50;8.63;;;;;;;15.39;63.58;97165.59;5131405;27;41229;-77
2022/04/24 10:59:29;;;;;;;9.50;8.20;;;;;;;15.54;63.44;97167.59;5100736;28;42863;-76
2022/04/24 11:01:58;;;;;;;9.53;7.67;;;;;;;15.58;62.02;97171.63;5110918;28;43607;-77
2022/04/24 11:04:27;;;;;;;9.37;7.50;;;;;;;15.56;62.50;97170.97;5094491;28;42807;-77
2022/04/24 11:06:57;;;;;;;8.60;7.70;;;;;;;15.57;62.45;97168.13;5093760;28;42602;-76
2022/04/24 11:09:26;;;;;;;8.27;7.43;;;;;;;15.72;62.44;97165.59;5111989;28;39323;-78
2022/04/24 11:11:58;;;;;;;9.03;8.10;;;;;;;15.97;62.72;97169.88;5117446;28;41939;-77
2022/04/24 11:14:27;;;;;;;8.60;7.70;;;;;;;16.07;62.42;97169.72;5131556;27;44015;-77
2022/04/24 11:16:57;;;;;;;9.03;6.93;;;;;;;16.03;61.94;97166.53;5117326;28;40571;-77
2022/04/24 11:19:28;;;;;;;11.10;7.93;;;;;;;15.94;61.25;97172.91;5100488;28;39064;-77
2022/04/24 11:21:57;;;;;;;8.43;7.53;;;;;;;15.85;61.30;97175.75;5116510;28;40848;-78
2022/04/24 11:24:26;;;;;;;9.30;7.70;;;;;;;15.74;62.07;97171.59;5129504;27;42654;-77
2022/04/24 11:26:54;;;;;;;7.80;6.83;;;;;;;15.65;61.80;97175.28;5110855;28;42162;-77
2022/04/24 11:29:22;;;;;;;7.80;6.93;;;;;;;15.58;61.94;97182.31;5111113;28;39865;-77
2022/04/24 11:31:51;;;;;;;7.93;7.13;;;;;;;15.50;62.45;97179.59;5110223;28;42491;-77
2022/04/24 11:34:20;;;;;;;7.20;6.50;;;;;;;15.40;62.19;97190.44;5110461;28;43882;-77
2022/04/24 11:36:51;;;;;;;8.07;7.27;;;;;;;15.35;62.66;97193.59;5093934;28;41448;-77
2022/04/24 11:39:19;;;;;;;9.10;7.77;;;;;;;15.32;63.07;97190.44;5093844;28;38894;-76
2022/04/24 11:41:47;;;;;;;9.17;7.73;;;;;;;15.27;62.77;97198.94;5110519;28;42164;-77